createdAt,value
2024-05-09T00:06:53.719Z,13.2076
2024-05-09T00:17:14.531Z,13.1704
2024-05-09T00:27:35.249Z,13.1376
2024-05-09T00:37:56.089Z,13.0993
2024-05-09T00:48:19.752Z,13.0609
2024-05-09T00:58:28.406Z,13.0298
2024-05-09T01:08:49.423Z,12.9902
2024-05-09T01:19:10.371Z,12.9589
2024-05-09T01:29:31.466Z,12.9298
2024-05-09T01:39:52.309Z,12.9029
2024-05-09T01:50:16.363Z,12.8767
2024-05-09T02:00:33.738Z,12.8489
2024-05-09T02:10:35.928Z,12.8273
2024-05-09T02:20:56.727Z,12.8042
2024-05-09T02:31:17.283Z,12.7873
2024-05-09T02:41:37.876Z,12.7638
2024-05-09T02:51:58.268Z,12.7467
2024-05-09T03:02:19.050Z,12.7327
2024-05-09T03:12:39.524Z,12.7153
2024-05-09T03:23:00.316Z,12.7062
2024-05-09T03:33:21.636Z,12.6880
2024-05-09T03:43:42.591Z,12.6744
2024-05-09T03:54:03.140Z,12.6591
2024-05-09T04:04:24.006Z,12.6447
2024-05-09T04:14:44.458Z,12.6296
2024-05-09T04:25:04.829Z,12.6176
2024-05-09T04:35:25.485Z,12.6024
2024-05-09T04:45:46.120Z,12.5944
2024-05-09T04:56:06.729Z,12.5731
2024-05-09T05:06:27.131Z,12.5624
2024-05-09T05:16:47.822Z,12.5511
2024-05-09T05:27:08.310Z,12.5431
2024-05-09T05:37:28.789Z,12.5349
2024-05-09T05:47:49.537Z,12.5242
2024-05-09T05:58:10.438Z,12.5167
2024-05-09T06:08:30.929Z,12.5109
2024-05-09T06:18:51.593Z,12.5018
2024-05-09T06:29:12.244Z,12.5049
2024-05-09T06:39:33.133Z,12.5036
2024-05-09T06:49:53.856Z,12.5007
2024-05-09T07:00:22.735Z,12.4978
2024-05-09T07:10:32.909Z,12.5030
2024-05-09T07:20:40.480Z,12.5059
2024-05-09T07:31:01.444Z,12.5251
2024-05-09T07:41:21.886Z,12.5358
2024-05-09T08:01:52.176Z,12.5630
2024-05-09T08:12:12.714Z,12.5749
2024-05-09T08:22:33.139Z,12.5844
2024-05-09T08:32:53.707Z,12.6058
2024-05-09T08:43:14.296Z,12.6282
2024-05-09T08:53:34.893Z,12.6422
2024-05-09T09:03:55.687Z,12.6616
2024-05-09T09:14:16.534Z,12.6827
2024-05-09T09:24:37.282Z,12.7020
2024-05-09T09:34:58.131Z,12.7253
2024-05-09T09:45:18.725Z,12.7478
2024-05-09T09:55:39.337Z,12.7716
2024-05-09T10:05:47.885Z,12.7957
2024-05-09T10:16:09.109Z,12.8256
2024-05-09T10:26:30.344Z,12.8664
2024-05-09T10:36:51.253Z,12.9009
2024-05-09T10:47:12.289Z,12.9498
2024-05-09T10:57:33.087Z,13.0018
2024-05-09T11:07:53.904Z,13.0598
2024-05-09T11:18:14.992Z,13.1162
2024-05-09T11:28:35.785Z,13.1713
2024-05-09T11:38:56.656Z,13.2262
2024-05-09T11:49:17.564Z,13.2864
2024-05-09T11:59:38.228Z,13.3376
2024-05-09T12:09:59.071Z,13.4016
2024-05-09T12:20:28.344Z,13.4600
2024-05-09T12:30:37.327Z,13.5134
2024-05-09T12:40:45.047Z,13.5627
2024-05-09T12:51:05.797Z,13.6133
2024-05-09T13:01:26.657Z,13.6627
2024-05-09T13:11:47.772Z,13.7160
2024-05-09T13:22:08.458Z,13.7620
2024-05-09T13:32:29.223Z,13.8131
2024-05-09T13:42:49.874Z,13.8609
2024-05-09T13:53:10.801Z,13.9156
2024-05-09T14:03:32.103Z,13.9600
2024-05-09T14:13:52.916Z,14.0044
2024-05-09T14:24:13.951Z,14.0476
2024-05-09T14:34:35.620Z,14.0969
2024-05-09T14:44:56.341Z,14.1327
2024-05-09T14:55:16.966Z,14.1711
2024-05-09T15:05:37.948Z,14.2060
2024-05-09T15:15:47.544Z,14.2434
2024-05-09T15:26:08.205Z,14.2771
2024-05-09T15:36:29.352Z,14.3140
2024-05-09T15:46:50.317Z,14.3389
2024-05-09T15:57:11.320Z,14.3660
2024-05-09T16:07:32.333Z,14.3827
2024-05-09T16:17:53.288Z,14.4071
2024-05-09T16:28:14.004Z,14.4233
2024-05-09T16:38:35.113Z,14.4407
2024-05-09T16:48:56.571Z,14.4533
2024-05-09T16:59:17.937Z,14.4618
2024-05-09T17:09:38.960Z,14.4704
2024-05-09T17:19:59.819Z,14.4698
2024-05-09T17:30:28.277Z,14.4733
2024-05-09T17:40:36.650Z,14.4730
2024-05-09T17:50:45.235Z,14.4659
2024-05-09T18:01:06.334Z,14.4629
2024-05-09T18:11:26.953Z,14.4502
2024-05-09T18:21:47.985Z,14.4360
2024-05-09T18:32:08.934Z,14.4249
2024-05-09T18:42:29.807Z,14.4082
2024-05-09T18:52:50.510Z,14.3918
2024-05-09T19:03:13.489Z,14.3756
2024-05-09T19:13:22.328Z,14.3511
2024-05-09T19:23:50.415Z,14.3302
2024-05-09T19:33:56.133Z,14.3025
2024-05-09T19:44:17.291Z,14.2818
2024-05-09T19:54:37.969Z,14.2504
2024-05-09T20:04:59.033Z,14.2238
2024-05-09T20:15:19.939Z,14.1913
2024-05-09T20:25:40.280Z,14.1607
2024-05-09T20:36:02.340Z,14.1282
2024-05-09T20:46:09.623Z,14.0859
2024-05-09T20:56:30.590Z,14.0496
2024-05-09T21:06:51.220Z,14.0162
2024-05-09T21:17:11.982Z,13.9760
2024-05-09T21:27:33.177Z,13.9358
2024-05-09T21:37:54.370Z,13.8856
2024-05-09T21:48:15.386Z,13.8518
2024-05-09T21:58:36.354Z,13.8020
2024-05-09T22:08:57.267Z,13.7653
2024-05-09T22:19:18.015Z,13.7178
2024-05-09T22:29:39.233Z,13.6764
2024-05-09T22:40:00.635Z,13.6318
2024-05-09T22:50:10.833Z,13.5893
2024-05-09T23:00:29.124Z,13.5391
2024-05-09T23:10:36.674Z,13.5027
2024-05-09T23:20:45.758Z,13.4648
2024-05-09T23:31:06.705Z,13.4171
2024-05-09T23:41:27.721Z,13.3756
2024-05-09T23:51:48.703Z,13.3322
